sensor_id;sensor_type;location;lat;lon;timestamp;P1;durP1;ratioP1;P2;durP2;ratioP2
75847;SDS011;73195;47.532;19.082;2023-11-21T00:00:29;12.48;;;5.78;;
75847;SDS011;73195;47.532;19.082;2023-11-21T00:02:56;13.60;;;6.50;;
75847;SDS011;73195;47.532;19.082;2023-11-21T00:05:24;15.15;;;5.95;;
75847;SDS011;73195;47.532;19.082;2023-11-21T00:07:52;11.80;;;5.45;;
75847;SDS011;73195;47.532;19.082;2023-11-21T00:10:19;12.33;;;5.60;;
75847;SDS011;73195;47.532;19.082;2023-11-21T00:12:46;11.55;;;5.65;;
75847;SDS011;73195;47.532;19.082;2023-11-21T00:15:13;9.50;;;4.78;;
75847;SDS011;73195;47.532;19.082;2023-11-21T00:17:41;12.93;;;5.65;;
75847;SDS011;73195;47.532;19.082;2023-11-21T00:20:09;11.25;;;5.45;;
75847;SDS011;73195;47.532;19.082;2023-11-21T00:22:38;11.23;;;5.80;;
75847;SDS011;73195;47.532;19.082;2023-11-21T00:25:07;11.68;;;5.05;;
75847;SDS011;73195;47.532;19.082;2023-11-21T00:27:35;13.73;;;4.97;;
75847;SDS011;73195;47.532;19.082;2023-11-21T00:30:02;13.18;;;5.82;;
75847;SDS011;73195;47.532;19.082;2023-11-21T00:32:32;12.10;;;5.35;;
75847;SDS011;73195;47.532;19.082;2023-11-21T00:34:59;13.63;;;5.70;;
75847;SDS011;73195;47.532;19.082;2023-11-21T00:37:27;14.07;;;5.80;;
75847;SDS011;73195;47.532;19.082;2023-11-21T00:39:54;12.15;;;5.70;;
75847;SDS011;73195;47.532;19.082;2023-11-21T00:42:23;10.65;;;5.62;;
75847;SDS011;73195;47.532;19.082;2023-11-21T00:44:50;13.07;;;6.15;;
75847;SDS011;73195;47.532;19.082;2023-11-21T00:47:17;14.07;;;6.27;;
75847;SDS011;73195;47.532;19.082;2023-11-21T00:49:44;13.73;;;5.60;;
75847;SDS011;73195;47.532;19.082;2023-11-21T00:52:11;13.57;;;6.05;;
75847;SDS011;73195;47.532;19.082;2023-11-21T00:54:38;14.50;;;5.50;;
75847;SDS011;73195;47.532;19.082;2023-11-21T00:57:05;11.25;;;4.68;;
75847;SDS011;73195;47.532;19.082;2023-11-21T00:59:35;13.00;;;4.55;;
75847;SDS011;73195;47.532;19.082;2023-11-21T01:02:02;12.10;;;5.03;;
75847;SDS011;73195;47.532;19.082;2023-11-21T01:04:30;11.32;;;4.50;;
75847;SDS011;73195;47.532;19.082;2023-11-21T01:06:58;13.35;;;5.30;;
75847;SDS011;73195;47.532;19.082;2023-11-21T01:09:26;12.93;;;5.47;;
75847;SDS011;73195;47.532;19.082;2023-11-21T01:11:53;10.15;;;5.20;;
75847;SDS011;73195;47.532;19.082;2023-11-21T01:14:20;14.77;;;5.20;;
75847;SDS011;73195;47.532;19.082;2023-11-21T01:16:49;10.55;;;4.78;;
75847;SDS011;73195;47.532;19.082;2023-11-21T01:19:16;12.40;;;5.00;;
75847;SDS011;73195;47.532;19.082;2023-11-21T01:21:43;10.25;;;4.75;;
75847;SDS011;73195;47.532;19.082;2023-11-21T01:24:10;10.82;;;4.60;;
75847;SDS011;73195;47.532;19.082;2023-11-21T01:26:37;9.32;;;4.60;;
75847;SDS011;73195;47.532;19.082;2023-11-21T01:29:04;10.35;;;4.87;;
75847;SDS011;73195;47.532;19.082;2023-11-21T01:31:31;11.15;;;4.85;;
75847;SDS011;73195;47.532;19.082;2023-11-21T01:34:00;13.32;;;4.97;;
75847;SDS011;73195;47.532;19.082;2023-11-21T01:36:30;11.23;;;4.20;;
75847;SDS011;73195;47.532;19.082;2023-11-21T01:38:58;13.13;;;4.20;;
75847;SDS011;73195;47.532;19.082;2023-11-21T01:41:25;12.90;;;4.95;;
75847;SDS011;73195;47.532;19.082;2023-11-21T01:43:54;9.57;;;4.43;;
75847;SDS011;73195;47.532;19.082;2023-11-21T01:46:21;11.52;;;4.68;;
75847;SDS011;73195;47.532;19.082;2023-11-21T01:48:49;13.87;;;5.77;;
75847;SDS011;73195;47.532;19.082;2023-11-21T01:51:18;11.60;;;4.62;;
75847;SDS011;73195;47.532;19.082;2023-11-21T01:53:45;13.90;;;4.70;;
75847;SDS011;73195;47.532;19.082;2023-11-21T01:56:13;12.68;;;4.60;;
75847;SDS011;73195;47.532;19.082;2023-11-21T01:58:40;12.77;;;4.68;;
75847;SDS011;73195;47.532;19.082;2023-11-21T02:01:09;9.73;;;4.70;;
75847;SDS011;73195;47.532;19.082;2023-11-21T02:03:36;11.48;;;5.03;;
75847;SDS011;73195;47.532;19.082;2023-11-21T02:06:03;11.63;;;4.30;;
75847;SDS011;73195;47.532;19.082;2023-11-21T02:08:32;15.25;;;5.25;;
75847;SDS011;73195;47.532;19.082;2023-11-21T02:10:59;10.30;;;4.93;;
75847;SDS011;73195;47.532;19.082;2023-11-21T02:13:27;11.37;;;4.77;;
75847;SDS011;73195;47.532;19.082;2023-11-21T02:15:54;12.20;;;4.78;;
75847;SDS011;73195;47.532;19.082;2023-11-21T02:18:22;12.65;;;5.10;;
75847;SDS011;73195;47.532;19.082;2023-11-21T02:20:49;12.10;;;4.75;;
75847;SDS011;73195;47.532;19.082;2023-11-21T02:23:17;13.93;;;5.43;;
75847;SDS011;73195;47.532;19.082;2023-11-21T02:25:45;9.77;;;4.70;;
75847;SDS011;73195;47.532;19.082;2023-11-21T02:28:12;13.62;;;5.32;;
75847;SDS011;73195;47.532;19.082;2023-11-21T02:30:41;12.45;;;5.40;;
75847;SDS011;73195;47.532;19.082;2023-11-21T02:33:09;11.55;;;4.90;;
75847;SDS011;73195;47.532;19.082;2023-11-21T02:35:38;10.18;;;4.68;;
75847;SDS011;73195;47.532;19.082;2023-11-21T02:38:05;10.00;;;5.10;;
75847;SDS011;73195;47.532;19.082;2023-11-21T02:40:33;10.32;;;5.00;;
75847;SDS011;73195;47.532;19.082;2023-11-21T02:43:01;11.85;;;4.75;;
75847;SDS011;73195;47.532;19.082;2023-11-21T02:45:28;13.40;;;5.18;;
75847;SDS011;73195;47.532;19.082;2023-11-21T02:47:55;11.60;;;4.93;;
75847;SDS011;73195;47.532;19.082;2023-11-21T02:50:22;10.38;;;4.97;;
75847;SDS011;73195;47.532;19.082;2023-11-21T02:52:50;11.77;;;4.80;;
75847;SDS011;73195;47.532;19.082;2023-11-21T02:55:17;11.07;;;5.18;;
75847;SDS011;73195;47.532;19.082;2023-11-21T02:57:46;12.80;;;4.82;;
75847;SDS011;73195;47.532;19.082;2023-11-21T03:00:13;12.82;;;5.03;;
75847;SDS011;73195;47.532;19.082;2023-11-21T03:02:41;12.00;;;5.30;;
75847;SDS011;73195;47.532;19.082;2023-11-21T03:05:09;11.07;;;5.30;;
75847;SDS011;73195;47.532;19.082;2023-11-21T03:07:36;10.85;;;5.07;;
75847;SDS011;73195;47.532;19.082;2023-11-21T03:10:05;14.77;;;4.87;;
75847;SDS011;73195;47.532;19.082;2023-11-21T03:12:34;14.43;;;5.00;;
75847;SDS011;73195;47.532;19.082;2023-11-21T03:15:03;11.63;;;4.10;;
75847;SDS011;73195;47.532;19.082;2023-11-21T03:17:31;11.90;;;4.47;;
75847;SDS011;73195;47.532;19.082;2023-11-21T03:19:59;10.07;;;4.60;;
75847;SDS011;73195;47.532;19.082;2023-11-21T03:22:26;8.32;;;4.43;;
75847;SDS011;73195;47.532;19.082;2023-11-21T03:24:53;10.60;;;4.30;;
75847;SDS011;73195;47.532;19.082;2023-11-21T03:27:21;9.37;;;4.50;;
75847;SDS011;73195;47.532;19.082;2023-11-21T03:29:48;11.52;;;4.47;;
75847;SDS011;73195;47.532;19.082;2023-11-21T03:32:17;12.02;;;5.75;;
75847;SDS011;73195;47.532;19.082;2023-11-21T03:34:54;9.73;;;4.75;;
75847;SDS011;73195;47.532;19.082;2023-11-21T03:37:23;13.88;;;5.55;;
75847;SDS011;73195;47.532;19.082;2023-11-21T03:39:50;12.40;;;5.40;;
75847;SDS011;73195;47.532;19.082;2023-11-21T03:42:19;12.32;;;5.80;;
75847;SDS011;73195;47.532;19.082;2023-11-21T03:44:46;11.25;;;5.47;;
75847;SDS011;73195;47.532;19.082;2023-11-21T03:47:13;11.07;;;5.50;;
75847;SDS011;73195;47.532;19.082;2023-11-21T03:49:42;13.35;;;5.57;;
75847;SDS011;73195;47.532;19.082;2023-11-21T03:52:09;14.07;;;5.90;;
75847;SDS011;73195;47.532;19.082;2023-11-21T03:54:37;12.57;;;6.28;;
75847;SDS011;73195;47.532;19.082;2023-11-21T03:57:05;16.40;;;6.43;;
75847;SDS011;73195;47.532;19.082;2023-11-21T03:59:34;11.52;;;5.85;;
75847;SDS011;73195;47.532;19.082;2023-11-21T04:02:01;12.52;;;5.82;;
75847;SDS011;73195;47.532;19.082;2023-11-21T04:04:29;13.63;;;6.60;;
75847;SDS011;73195;47.532;19.082;2023-11-21T04:06:57;14.82;;;6.75;;
75847;SDS011;73195;47.532;19.082;2023-11-21T04:09:24;15.00;;;6.47;;
75847;SDS011;73195;47.532;19.082;2023-11-21T04:11:52;12.37;;;5.95;;
75847;SDS011;73195;47.532;19.082;2023-11-21T04:14:19;19.75;;;6.68;;
75847;SDS011;73195;47.532;19.082;2023-11-21T04:16:46;15.67;;;7.60;;
75847;SDS011;73195;47.532;19.082;2023-11-21T04:19:14;14.35;;;6.82;;
75847;SDS011;73195;47.532;19.082;2023-11-21T04:21:41;13.82;;;6.82;;
75847;SDS011;73195;47.532;19.082;2023-11-21T04:24:10;11.93;;;6.12;;
75847;SDS011;73195;47.532;19.082;2023-11-21T04:26:37;13.23;;;6.55;;
75847;SDS011;73195;47.532;19.082;2023-11-21T04:29:04;14.77;;;7.20;;
75847;SDS011;73195;47.532;19.082;2023-11-21T04:31:31;15.20;;;7.15;;
75847;SDS011;73195;47.532;19.082;2023-11-21T04:33:58;15.50;;;7.22;;
75847;SDS011;73195;47.532;19.082;2023-11-21T04:36:25;20.08;;;8.45;;
75847;SDS011;73195;47.532;19.082;2023-11-21T04:38:53;18.77;;;8.25;;
75847;SDS011;73195;47.532;19.082;2023-11-21T04:41:21;16.37;;;8.80;;
75847;SDS011;73195;47.532;19.082;2023-11-21T04:43:48;18.62;;;9.32;;
75847;SDS011;73195;47.532;19.082;2023-11-21T04:46:15;20.65;;;9.20;;
75847;SDS011;73195;47.532;19.082;2023-11-21T04:48:43;16.85;;;8.38;;
75847;SDS011;73195;47.532;19.082;2023-11-21T04:51:10;16.60;;;8.48;;
75847;SDS011;73195;47.532;19.082;2023-11-21T04:53:38;17.05;;;9.25;;
75847;SDS011;73195;47.532;19.082;2023-11-21T04:56:05;22.83;;;10.07;;
75847;SDS011;73195;47.532;19.082;2023-11-21T04:58:34;19.83;;;9.65;;
75847;SDS011;73195;47.532;19.082;2023-11-21T05:01:02;18.87;;;10.05;;
75847;SDS011;73195;47.532;19.082;2023-11-21T05:03:29;26.37;;;10.93;;
75847;SDS011;73195;47.532;19.082;2023-11-21T05:05:56;24.10;;;11.37;;
75847;SDS011;73195;47.532;19.082;2023-11-21T05:08:25;24.12;;;11.48;;
75847;SDS011;73195;47.532;19.082;2023-11-21T05:10:52;25.35;;;12.45;;
75847;SDS011;73195;47.532;19.082;2023-11-21T05:13:20;25.10;;;13.95;;
75847;SDS011;73195;47.532;19.082;2023-11-21T05:15:48;22.58;;;10.35;;
75847;SDS011;73195;47.532;19.082;2023-11-21T05:18:16;21.27;;;10.20;;
75847;SDS011;73195;47.532;19.082;2023-11-21T05:20:43;18.73;;;9.82;;
75847;SDS011;73195;47.532;19.082;2023-11-21T05:23:10;16.12;;;7.97;;
75847;SDS011;73195;47.532;19.082;2023-11-21T05:25:38;13.07;;;6.97;;
75847;SDS011;73195;47.532;19.082;2023-11-21T05:28:05;16.50;;;8.50;;
75847;SDS011;73195;47.532;19.082;2023-11-21T05:30:32;14.47;;;7.10;;
75847;SDS011;73195;47.532;19.082;2023-11-21T05:33:01;18.98;;;9.40;;
75847;SDS011;73195;47.532;19.082;2023-11-21T05:35:28;19.85;;;9.93;;
75847;SDS011;73195;47.532;19.082;2023-11-21T05:37:56;18.70;;;9.70;;
75847;SDS011;73195;47.532;19.082;2023-11-21T05:40:23;19.60;;;9.98;;
75847;SDS011;73195;47.532;19.082;2023-11-21T05:42:55;17.65;;;9.30;;
75847;SDS011;73195;47.532;19.082;2023-11-21T05:45:22;18.92;;;9.25;;
75847;SDS011;73195;47.532;19.082;2023-11-21T05:47:49;17.15;;;9.52;;
75847;SDS011;73195;47.532;19.082;2023-11-21T05:50:18;21.48;;;9.50;;
75847;SDS011;73195;47.532;19.082;2023-11-21T05:52:46;20.65;;;9.48;;
75847;SDS011;73195;47.532;19.082;2023-11-21T05:55:14;18.73;;;9.80;;
75847;SDS011;73195;47.532;19.082;2023-11-21T05:57:41;17.85;;;9.50;;
75847;SDS011;73195;47.532;19.082;2023-11-21T06:00:10;18.52;;;9.60;;
75847;SDS011;73195;47.532;19.082;2023-11-21T06:02:41;17.50;;;9.07;;
75847;SDS011;73195;47.532;19.082;2023-11-21T06:05:11;15.13;;;8.30;;
75847;SDS011;73195;47.532;19.082;2023-11-21T06:07:40;18.40;;;9.60;;
75847;SDS011;73195;47.532;19.082;2023-11-21T06:10:07;20.40;;;8.32;;
75847;SDS011;73195;47.532;19.082;2023-11-21T06:12:35;20.95;;;8.13;;
75847;SDS011;73195;47.532;19.082;2023-11-21T06:15:03;17.87;;;7.82;;
75847;SDS011;73195;47.532;19.082;2023-11-21T06:17:33;25.08;;;8.27;;
75847;SDS011;73195;47.532;19.082;2023-11-21T06:20:01;12.50;;;5.95;;
75847;SDS011;73195;47.532;19.082;2023-11-21T06:22:34;13.60;;;5.35;;
75847;SDS011;73195;47.532;19.082;2023-11-21T06:25:03;17.62;;;7.85;;
75847;SDS011;73195;47.532;19.082;2023-11-21T06:27:31;16.45;;;7.00;;
75847;SDS011;73195;47.532;19.082;2023-11-21T06:29:59;15.45;;;7.45;;
75847;SDS011;73195;47.532;19.082;2023-11-21T06:32:27;17.87;;;7.47;;
75847;SDS011;73195;47.532;19.082;2023-11-21T06:34:55;16.62;;;6.87;;
75847;SDS011;73195;47.532;19.082;2023-11-21T06:37:25;25.73;;;7.28;;
75847;SDS011;73195;47.532;19.082;2023-11-21T06:39:52;25.85;;;10.35;;
75847;SDS011;73195;47.532;19.082;2023-11-21T06:42:23;28.10;;;12.48;;
75847;SDS011;73195;47.532;19.082;2023-11-21T06:44:50;25.03;;;12.33;;
75847;SDS011;73195;47.532;19.082;2023-11-21T06:47:19;28.50;;;12.40;;
75847;SDS011;73195;47.532;19.082;2023-11-21T06:49:46;26.70;;;12.80;;
75847;SDS011;73195;47.532;19.082;2023-11-21T06:52:14;27.75;;;13.98;;
75847;SDS011;73195;47.532;19.082;2023-11-21T06:54:41;29.63;;;14.00;;
75847;SDS011;73195;47.532;19.082;2023-11-21T06:57:09;31.08;;;14.87;;
75847;SDS011;73195;47.532;19.082;2023-11-21T06:59:37;31.25;;;14.48;;
75847;SDS011;73195;47.532;19.082;2023-11-21T07:02:05;29.42;;;15.10;;
75847;SDS011;73195;47.532;19.082;2023-11-21T07:04:32;31.55;;;15.30;;
75847;SDS011;73195;47.532;19.082;2023-11-21T07:07:00;32.10;;;14.57;;
75847;SDS011;73195;47.532;19.082;2023-11-21T07:09:27;27.30;;;12.53;;
75847;SDS011;73195;47.532;19.082;2023-11-21T07:11:54;23.30;;;10.02;;
75847;SDS011;73195;47.532;19.082;2023-11-21T07:14:22;25.62;;;10.77;;
75847;SDS011;73195;47.532;19.082;2023-11-21T07:16:50;21.65;;;10.52;;
75847;SDS011;73195;47.532;19.082;2023-11-21T07:19:18;19.50;;;8.73;;
75847;SDS011;73195;47.532;19.082;2023-11-21T07:21:45;17.77;;;8.20;;
75847;SDS011;73195;47.532;19.082;2023-11-21T07:24:12;18.48;;;7.53;;
75847;SDS011;73195;47.532;19.082;2023-11-21T07:26:39;16.45;;;7.20;;
75847;SDS011;73195;47.532;19.082;2023-11-21T07:29:06;17.33;;;6.50;;
75847;SDS011;73195;47.532;19.082;2023-11-21T07:31:33;21.87;;;8.85;;
75847;SDS011;73195;47.532;19.082;2023-11-21T07:34:02;19.67;;;10.33;;
75847;SDS011;73195;47.532;19.082;2023-11-21T07:36:29;25.55;;;10.38;;
75847;SDS011;73195;47.532;19.082;2023-11-21T07:38:57;20.90;;;9.60;;
75847;SDS011;73195;47.532;19.082;2023-11-21T07:41:24;22.55;;;10.05;;
75847;SDS011;73195;47.532;19.082;2023-11-21T07:43:52;26.23;;;10.85;;
75847;SDS011;73195;47.532;19.082;2023-11-21T07:46:21;30.23;;;9.90;;
75847;SDS011;73195;47.532;19.082;2023-11-21T07:48:49;22.67;;;9.40;;
75847;SDS011;73195;47.532;19.082;2023-11-21T07:51:19;25.12;;;10.05;;
75847;SDS011;73195;47.532;19.082;2023-11-21T07:53:46;23.48;;;9.48;;
75847;SDS011;73195;47.532;19.082;2023-11-21T07:56:13;21.08;;;8.98;;
75847;SDS011;73195;47.532;19.082;2023-11-21T07:58:40;25.97;;;10.47;;
75847;SDS011;73195;47.532;19.082;2023-11-21T08:01:07;25.55;;;9.52;;
75847;SDS011;73195;47.532;19.082;2023-11-21T08:03:34;17.10;;;8.57;;
75847;SDS011;73195;47.532;19.082;2023-11-21T08:06:00;21.42;;;8.48;;
75847;SDS011;73195;47.532;19.082;2023-11-21T08:08:30;21.30;;;8.50;;
75847;SDS011;73195;47.532;19.082;2023-11-21T08:10:58;19.40;;;10.03;;
75847;SDS011;73195;47.532;19.082;2023-11-21T08:13:27;23.33;;;9.63;;
75847;SDS011;73195;47.532;19.082;2023-11-21T08:15:55;21.23;;;8.95;;
75847;SDS011;73195;47.532;19.082;2023-11-21T08:18:27;20.00;;;9.75;;
75847;SDS011;73195;47.532;19.082;2023-11-21T08:20:54;21.40;;;10.43;;
75847;SDS011;73195;47.532;19.082;2023-11-21T08:23:21;19.50;;;8.73;;
75847;SDS011;73195;47.532;19.082;2023-11-21T08:25:52;12.07;;;4.43;;
75847;SDS011;73195;47.532;19.082;2023-11-21T08:28:19;19.25;;;7.03;;
75847;SDS011;73195;47.532;19.082;2023-11-21T08:30:48;14.35;;;5.85;;
75847;SDS011;73195;47.532;19.082;2023-11-21T08:33:16;13.10;;;5.25;;
75847;SDS011;73195;47.532;19.082;2023-11-21T08:35:43;16.60;;;4.97;;
75847;SDS011;73195;47.532;19.082;2023-11-21T08:38:11;17.00;;;5.20;;
75847;SDS011;73195;47.532;19.082;2023-11-21T08:40:38;15.13;;;5.20;;
75847;SDS011;73195;47.532;19.082;2023-11-21T08:43:06;14.40;;;5.72;;
75847;SDS011;73195;47.532;19.082;2023-11-21T08:45:33;17.73;;;5.97;;
75847;SDS011;73195;47.532;19.082;2023-11-21T08:48:01;14.00;;;6.63;;
75847;SDS011;73195;47.532;19.082;2023-11-21T08:50:28;18.67;;;5.87;;
75847;SDS011;73195;47.532;19.082;2023-11-21T08:52:55;17.10;;;6.20;;
75847;SDS011;73195;47.532;19.082;2023-11-21T08:55:23;15.20;;;6.65;;
75847;SDS011;73195;47.532;19.082;2023-11-21T08:57:50;19.25;;;6.40;;
75847;SDS011;73195;47.532;19.082;2023-11-21T09:00:18;13.27;;;5.37;;
75847;SDS011;73195;47.532;19.082;2023-11-21T09:02:46;15.07;;;5.12;;
75847;SDS011;73195;47.532;19.082;2023-11-21T09:05:13;12.15;;;5.80;;
75847;SDS011;73195;47.532;19.082;2023-11-21T09:07:41;11.82;;;5.20;;
75847;SDS011;73195;47.532;19.082;2023-11-21T09:10:09;11.23;;;5.20;;
75847;SDS011;73195;47.532;19.082;2023-11-21T09:12:37;12.13;;;5.30;;
75847;SDS011;73195;47.532;19.082;2023-11-21T09:15:05;14.87;;;5.65;;
75847;SDS011;73195;47.532;19.082;2023-11-21T09:17:34;13.23;;;5.37;;
75847;SDS011;73195;47.532;19.082;2023-11-21T09:20:01;11.93;;;4.22;;
75847;SDS011;73195;47.532;19.082;2023-11-21T09:22:30;11.18;;;3.87;;
75847;SDS011;73195;47.532;19.082;2023-11-21T09:24:58;14.77;;;4.77;;
75847;SDS011;73195;47.532;19.082;2023-11-21T09:27:25;11.60;;;4.10;;
75847;SDS011;73195;47.532;19.082;2023-11-21T09:29:52;10.18;;;4.62;;
75847;SDS011;73195;47.532;19.082;2023-11-21T09:32:19;20.40;;;4.50;;
75847;SDS011;73195;47.532;19.082;2023-11-21T09:34:49;11.98;;;3.58;;
75847;SDS011;73195;47.532;19.082;2023-11-21T09:37:16;11.80;;;3.47;;
75847;SDS011;73195;47.532;19.082;2023-11-21T09:39:44;10.20;;;3.58;;
75847;SDS011;73195;47.532;19.082;2023-11-21T09:42:13;11.30;;;3.50;;
75847;SDS011;73195;47.532;19.082;2023-11-21T09:44:45;11.27;;;3.78;;
75847;SDS011;73195;47.532;19.082;2023-11-21T09:47:15;16.90;;;4.90;;
75847;SDS011;73195;47.532;19.082;2023-11-21T09:49:42;19.93;;;4.50;;
75847;SDS011;73195;47.532;19.082;2023-11-21T09:52:14;14.43;;;4.03;;
75847;SDS011;73195;47.532;19.082;2023-11-21T09:54:46;15.65;;;3.87;;
75847;SDS011;73195;47.532;19.082;2023-11-21T09:57:14;19.42;;;4.40;;
75847;SDS011;73195;47.532;19.082;2023-11-21T09:59:41;19.17;;;4.65;;
75847;SDS011;73195;47.532;19.082;2023-11-21T10:02:10;16.03;;;4.30;;
75847;SDS011;73195;47.532;19.082;2023-11-21T10:04:39;17.20;;;6.37;;
75847;SDS011;73195;47.532;19.082;2023-11-21T10:07:06;21.15;;;6.40;;
75847;SDS011;73195;47.532;19.082;2023-11-21T10:09:36;22.15;;;6.40;;
75847;SDS011;73195;47.532;19.082;2023-11-21T10:12:03;15.73;;;6.78;;
75847;SDS011;73195;47.532;19.082;2023-11-21T10:14:34;15.83;;;6.60;;
75847;SDS011;73195;47.532;19.082;2023-11-21T10:17:01;12.02;;;6.07;;
75847;SDS011;73195;47.532;19.082;2023-11-21T10:19:29;15.65;;;4.50;;
75847;SDS011;73195;47.532;19.082;2023-11-21T10:21:57;9.23;;;3.28;;
75847;SDS011;73195;47.532;19.082;2023-11-21T10:24:25;10.27;;;2.72;;
75847;SDS011;73195;47.532;19.082;2023-11-21T10:26:54;11.10;;;3.17;;
75847;SDS011;73195;47.532;19.082;2023-11-21T10:29:21;14.13;;;3.85;;
75847;SDS011;73195;47.532;19.082;2023-11-21T10:31:49;10.40;;;3.92;;
75847;SDS011;73195;47.532;19.082;2023-11-21T10:34:16;7.20;;;3.05;;
75847;SDS011;73195;47.532;19.082;2023-11-21T10:36:45;7.87;;;2.72;;
75847;SDS011;73195;47.532;19.082;2023-11-21T10:39:13;8.43;;;2.90;;
75847;SDS011;73195;47.532;19.082;2023-11-21T10:41:43;15.35;;;3.40;;
75847;SDS011;73195;47.532;19.082;2023-11-21T10:44:12;9.82;;;3.30;;
75847;SDS011;73195;47.532;19.082;2023-11-21T10:46:46;9.38;;;3.30;;
75847;SDS011;73195;47.532;19.082;2023-11-21T10:49:16;8.63;;;3.00;;
75847;SDS011;73195;47.532;19.082;2023-11-21T10:51:44;10.33;;;2.90;;
75847;SDS011;73195;47.532;19.082;2023-11-21T10:54:11;9.18;;;2.83;;
75847;SDS011;73195;47.532;19.082;2023-11-21T10:56:39;7.43;;;2.75;;
75847;SDS011;73195;47.532;19.082;2023-11-21T10:59:09;9.05;;;3.00;;
75847;SDS011;73195;47.532;19.082;2023-11-21T11:01:40;7.70;;;2.90;;
75847;SDS011;73195;47.532;19.082;2023-11-21T11:04:08;18.60;;;4.37;;
75847;SDS011;73195;47.532;19.082;2023-11-21T11:06:40;15.82;;;4.62;;
75847;SDS011;73195;47.532;19.082;2023-11-21T11:09:08;12.05;;;3.40;;
75847;SDS011;73195;47.532;19.082;2023-11-21T11:11:38;12.95;;;3.08;;
75847;SDS011;73195;47.532;19.082;2023-11-21T11:14:07;8.55;;;2.80;;
75847;SDS011;73195;47.532;19.082;2023-11-21T11:16:34;11.60;;;4.50;;
75847;SDS011;73195;47.532;19.082;2023-11-21T11:19:03;11.68;;;5.45;;
75847;SDS011;73195;47.532;19.082;2023-11-21T11:21:32;15.38;;;6.10;;
75847;SDS011;73195;47.532;19.082;2023-11-21T11:24:10;15.90;;;6.25;;
75847;SDS011;73195;47.532;19.082;2023-11-21T11:26:46;18.30;;;6.70;;
75847;SDS011;73195;47.532;19.082;2023-11-21T11:29:18;16.57;;;6.90;;
75847;SDS011;73195;47.532;19.082;2023-11-21T11:31:54;16.62;;;6.37;;
75847;SDS011;73195;47.532;19.082;2023-11-21T11:34:28;14.20;;;6.05;;
75847;SDS011;73195;47.532;19.082;2023-11-21T11:36:59;16.40;;;6.78;;
75847;SDS011;73195;47.532;19.082;2023-11-21T11:39:28;21.48;;;6.15;;
75847;SDS011;73195;47.532;19.082;2023-11-21T11:41:56;14.10;;;6.23;;
75847;SDS011;73195;47.532;19.082;2023-11-21T11:47:20;16.02;;;6.22;;
75847;SDS011;73195;47.532;19.082;2023-11-21T11:49:58;16.77;;;5.68;;
75847;SDS011;73195;47.532;19.082;2023-11-21T11:52:37;12.20;;;6.00;;
75847;SDS011;73195;47.532;19.082;2023-11-21T11:55:06;14.20;;;5.63;;
75847;SDS011;73195;47.532;19.082;2023-11-21T11:57:36;12.80;;;5.97;;
75847;SDS011;73195;47.532;19.082;2023-11-21T12:00:08;11.95;;;5.05;;
75847;SDS011;73195;47.532;19.082;2023-11-21T12:02:42;16.70;;;5.50;;
75847;SDS011;73195;47.532;19.082;2023-11-21T12:05:11;11.85;;;5.10;;
75847;SDS011;73195;47.532;19.082;2023-11-21T12:07:39;14.20;;;5.53;;
75847;SDS011;73195;47.532;19.082;2023-11-21T12:10:12;17.37;;;5.00;;
75847;SDS011;73195;47.532;19.082;2023-11-21T12:12:46;19.85;;;6.20;;
75847;SDS011;73195;47.532;19.082;2023-11-21T12:15:14;15.45;;;5.75;;
75847;SDS011;73195;47.532;19.082;2023-11-21T12:17:42;11.77;;;5.20;;
75847;SDS011;73195;47.532;19.082;2023-11-21T12:20:11;16.13;;;5.53;;
75847;SDS011;73195;47.532;19.082;2023-11-21T12:22:43;10.55;;;4.90;;
75847;SDS011;73195;47.532;19.082;2023-11-21T12:25:13;14.95;;;5.35;;
75847;SDS011;73195;47.532;19.082;2023-11-21T12:27:44;12.13;;;5.57;;
75847;SDS011;73195;47.532;19.082;2023-11-21T12:30:12;16.17;;;4.82;;
75847;SDS011;73195;47.532;19.082;2023-11-21T12:32:41;16.43;;;5.80;;
75847;SDS011;73195;47.532;19.082;2023-11-21T12:35:09;11.65;;;5.25;;
75847;SDS011;73195;47.532;19.082;2023-11-21T12:37:41;11.93;;;5.60;;
75847;SDS011;73195;47.532;19.082;2023-11-21T12:40:10;14.52;;;5.82;;
75847;SDS011;73195;47.532;19.082;2023-11-21T12:42:39;19.58;;;5.50;;
75847;SDS011;73195;47.532;19.082;2023-11-21T12:45:07;12.87;;;5.13;;
75847;SDS011;73195;47.532;19.082;2023-11-21T12:47:40;13.68;;;5.45;;
75847;SDS011;73195;47.532;19.082;2023-11-21T12:50:08;17.77;;;5.90;;
75847;SDS011;73195;47.532;19.082;2023-11-21T12:52:42;10.77;;;5.12;;
75847;SDS011;73195;47.532;19.082;2023-11-21T12:55:16;17.45;;;5.22;;
75847;SDS011;73195;47.532;19.082;2023-11-21T12:57:47;11.93;;;5.17;;
75847;SDS011;73195;47.532;19.082;2023-11-21T13:00:17;12.10;;;4.97;;
75847;SDS011;73195;47.532;19.082;2023-11-21T13:02:53;15.80;;;5.43;;
75847;SDS011;73195;47.532;19.082;2023-11-21T13:05:26;12.32;;;5.65;;
75847;SDS011;73195;47.532;19.082;2023-11-21T13:07:55;14.80;;;5.87;;
75847;SDS011;73195;47.532;19.082;2023-11-21T13:10:24;13.93;;;5.67;;
75847;SDS011;73195;47.532;19.082;2023-11-21T13:12:55;19.83;;;5.70;;
75847;SDS011;73195;47.532;19.082;2023-11-21T13:15:23;14.60;;;6.10;;
75847;SDS011;73195;47.532;19.082;2023-11-21T13:17:50;14.63;;;5.47;;
75847;SDS011;73195;47.532;19.082;2023-11-21T13:20:19;15.07;;;5.82;;
75847;SDS011;73195;47.532;19.082;2023-11-21T13:22:47;15.00;;;6.13;;
75847;SDS011;73195;47.532;19.082;2023-11-21T13:25:17;14.13;;;6.05;;
75847;SDS011;73195;47.532;19.082;2023-11-21T13:27:47;15.88;;;5.40;;
75847;SDS011;73195;47.532;19.082;2023-11-21T13:30:15;16.25;;;5.78;;
75847;SDS011;73195;47.532;19.082;2023-11-21T13:32:44;11.20;;;4.22;;
75847;SDS011;73195;47.532;19.082;2023-11-21T13:35:12;7.53;;;2.93;;
75847;SDS011;73195;47.532;19.082;2023-11-21T13:37:49;7.53;;;2.40;;
75847;SDS011;73195;47.532;19.082;2023-11-21T13:40:23;8.23;;;2.75;;
75847;SDS011;73195;47.532;19.082;2023-11-21T13:42:52;7.75;;;2.40;;
75847;SDS011;73195;47.532;19.082;2023-11-21T13:45:21;8.65;;;2.80;;
75847;SDS011;73195;47.532;19.082;2023-11-21T13:47:49;8.13;;;2.63;;
75847;SDS011;73195;47.532;19.082;2023-11-21T13:50:17;7.75;;;2.37;;
75847;SDS011;73195;47.532;19.082;2023-11-21T13:52:48;8.40;;;2.67;;
75847;SDS011;73195;47.532;19.082;2023-11-21T13:55:18;9.23;;;2.87;;
75847;SDS011;73195;47.532;19.082;2023-11-21T13:57:48;9.73;;;3.12;;
75847;SDS011;73195;47.532;19.082;2023-11-21T14:00:18;8.47;;;2.90;;
75847;SDS011;73195;47.532;19.082;2023-11-21T14:03:03;9.63;;;3.15;;
75847;SDS011;73195;47.532;19.082;2023-11-21T14:05:34;8.25;;;3.40;;
75847;SDS011;73195;47.532;19.082;2023-11-21T14:08:01;7.07;;;2.80;;
75847;SDS011;73195;47.532;19.082;2023-11-21T14:10:30;8.75;;;2.87;;
75847;SDS011;73195;47.532;19.082;2023-11-21T14:13:06;8.33;;;2.83;;
75847;SDS011;73195;47.532;19.082;2023-11-21T14:15:35;9.43;;;3.00;;
75847;SDS011;73195;47.532;19.082;2023-11-21T14:18:07;9.63;;;3.10;;
75847;SDS011;73195;47.532;19.082;2023-11-21T14:20:38;8.45;;;3.05;;
75847;SDS011;73195;47.532;19.082;2023-11-21T14:23:05;6.95;;;2.47;;
75847;SDS011;73195;47.532;19.082;2023-11-21T14:25:33;7.13;;;2.67;;
75847;SDS011;73195;47.532;19.082;2023-11-21T14:28:02;7.22;;;1.85;;
75847;SDS011;73195;47.532;19.082;2023-11-21T14:30:35;9.27;;;1.83;;